| time (UTC) | temp C | wind direction | speed KPH | gust KPH | rain 1hr cm | rain 24hr cm | rain mn cm | humidity % | barometer mb |
| 20260507113109 | 13 | 0 | 0.0 | 0.0 | 0.00 | 1.24 | 0.03 | 75 | 1013.3 |
| 20260507110109 | 13 | 0 | 0.0 | 0.0 | 0.00 | 1.24 | 0.03 | 76 | 1013.3 |
| 20260507103110 | 12 | 0 | 0.0 | 0.0 | 0.00 | 1.24 | 0.03 | 80 | 1013.3 |
| 20260507100109 | 12 | 315 | 0.0 | 4.8 | 0.00 | 1.24 | 0.03 | 81 | 1013.1 |
| 20260507093109 | 11 | 0 | 0.0 | 0.0 | 0.00 | 1.24 | 0.03 | 83 | 1012.7 |
| 20260507090109 | 11 | 315 | 1.6 | 8.0 | 0.00 | 1.24 | 0.03 | 84 | 1012.5 |
| 20260507083109 | 11 | 0 | 0.0 | 0.0 | 0.00 | 1.24 | 0.03 | 85 | 1012.4 |
| 20260507080109 | 11 | 0 | 0.0 | 0.0 | 0.00 | 1.24 | 0.03 | 86 | 1012.1 |
| 20260507073109 | 11 | 0 | 0.0 | 0.0 | 0.00 | 1.24 | 0.03 | 87 | 1011.8 |
| 20260507070109 | 10 | 315 | 0.0 | 8.0 | 0.00 | 1.24 | 0.03 | 88 | 1011.5 |
| 20260507063114 | 10 | 0 | 0.0 | 0.0 | 0.00 | 1.24 | 0.03 | 89 | 1011.3 |
| 20260507053113 | 10 | 0 | 0.0 | 0.0 | 0.00 | 1.24 | 0.03 | 90 | 1010.7 |
| 20260507050113 | 10 | 0 | 0.0 | 0.0 | 0.00 | 1.24 | 0.03 | 91 | 1010.3 |
| 20260507043113 | 10 | 0 | 0.0 | 0.0 | 0.00 | 1.27 | 0.03 | 91 | 1009.9 |
| 20260507040113 | 10 | 337 | 0.0 | 1.6 | 0.00 | 1.27 | 0.03 | 91 | 1009.7 |
| 20260507033113 | 10 | 0 | 0.0 | 0.0 | 0.00 | 1.27 | 0.03 | 92 | 1009.5 |
| 20260507030113 | 10 | 337 | 1.6 | 11.3 | 0.00 | 1.27 | 0.03 | 92 | 1009.1 |
| 20260507023113 | 10 | 0 | 0.0 | 0.0 | 0.00 | 1.27 | 0.03 | 92 | 1009.1 |
| 20260507020113 | 10 | 0 | 0.0 | 0.0 | 0.00 | 1.27 | 0.03 | 92 | 1008.9 |
| 20260507013113 | 10 | 0 | 0.0 | 0.0 | 0.00 | 1.27 | 0.03 | 92 | 1008.6 |
| 20260507010112 | 10 | 337 | 1.6 | 11.3 | 0.00 | 1.27 | 0.03 | 92 | 1008.4 |
| 20260507000113 | 10 | 0 | 0.0 | 0.0 | 0.00 | 1.27 | 0.03 | 91 | 1008.4 |
| 20260506233112 | 10 | 292 | 0.0 | 4.8 | 0.03 | 1.27 | 0.03 | 91 | 1008.2 |
| 20260506230113 | 10 | 270 | 1.6 | 8.0 | 0.03 | 1.27 | 0.03 | 91 | 1008.1 |
| 20260506223112 | 11 | 0 | 0.0 | 0.0 | 0.00 | 1.24 | 0.00 | 91 | 1007.9 |
| 20260506220112 | 11 | 270 | 0.0 | 3.2 | 0.05 | 1.24 | 0.00 | 91 | 1007.7 |
| 20260506213112 | 11 | 270 | 1.6 | 9.7 | 0.08 | 1.24 | 1.24 | 90 | 1007.3 |
| 20260506210112 | 11 | 0 | 0.0 | 0.0 | 0.08 | 1.19 | 1.19 | 90 | 1007.1 |
| 20260506203112 | 12 | 270 | 0.0 | 3.2 | 0.10 | 1.22 | 1.17 | 89 | 1006.9 |
| 20260506200112 | 12 | 0 | 0.0 | 0.0 | 0.18 | 1.17 | 1.12 | 89 | 1006.5 |
| 20260506193112 | 13 | 0 | 0.0 | 0.0 | 0.28 | 1.45 | 1.07 | 88 | 1006.2 |
| 20260506190111 | 13 | 0 | 0.0 | 0.0 | 0.36 | 1.35 | 0.94 | 88 | 1005.8 |
| 20260506183111 | 13 | 0 | 0.0 | 0.0 | 0.51 | 1.35 | 0.79 | 86 | 1005.5 |
| 20260506180111 | 14 | 0 | 0.0 | 0.0 | 0.41 | 1.14 | 0.58 | 85 | 1005.1 |
| 20260506170111 | 16 | 225 | 0.0 | 8.0 | 0.15 | 0.74 | 0.18 | 76 | 1004.5 |
| 20260506163111 | 17 | 157 | 3.2 | 16.1 | 0.00 | 0.58 | 0.03 | 68 | 1004.0 |
| 20260506160110 | 18 | 180 | 1.6 | 11.3 | 0.00 | 0.58 | 0.03 | 61 | 1003.8 |
| 20260506153111 | 19 | 202 | 0.0 | 8.0 | 0.00 | 0.58 | 0.03 | 57 | 1003.9 |
| 20260506150111 | 18 | 225 | 1.6 | 11.3 | 0.00 | 0.58 | 0.03 | 57 | 1003.8 |
| 20260506143110 | 18 | 202 | 4.8 | 12.9 | 0.00 | 0.58 | 0.03 | 58 | 1003.7 |
| 20260506133110 | 19 | 225 | 4.8 | 12.9 | 0.00 | 0.64 | 0.03 | 59 | 1003.8 |
| 20260506130111 | 20 | 225 | 4.8 | 14.5 | 0.00 | 0.64 | 0.03 | 56 | 1003.8 |
| 20260506123110 | 19 | 247 | 3.2 | 11.3 | 0.00 | 1.04 | 0.03 | 58 | 1003.8 |
| 20260506120110 | 19 | 225 | 4.8 | 16.1 | 0.00 | 1.04 | 0.03 | 59 | 1003.8 |